sensor_id;sensor_type;location;lat;lon;timestamp;pressure;altitude;pressure_sealevel;temperature;humidity
68889;BME280;55930;47.412;8.790;2023-02-26T00:00:20;93763.94;;;-0.87;100.00
68889;BME280;55930;47.412;8.790;2023-02-26T00:03:41;93760.88;;;-0.82;100.00
68889;BME280;55930;47.412;8.790;2023-02-26T00:07:01;93767.47;;;-0.77;100.00
68889;BME280;55930;47.412;8.790;2023-02-26T00:10:24;93770.31;;;-0.71;100.00
68889;BME280;55930;47.412;8.790;2023-02-26T00:13:44;93774.19;;;-0.80;100.00
68889;BME280;55930;47.412;8.790;2023-02-26T00:20:44;93767.56;;;-0.81;100.00
68889;BME280;55930;47.412;8.790;2023-02-26T00:24:05;93772.13;;;-0.68;100.00
68889;BME280;55930;47.412;8.790;2023-02-26T00:27:25;93775.44;;;-0.84;100.00
68889;BME280;55930;47.412;8.790;2023-02-26T00:30:46;93768.50;;;-0.91;100.00
68889;BME280;55930;47.412;8.790;2023-02-26T00:34:11;93766.06;;;-0.98;100.00
68889;BME280;55930;47.412;8.790;2023-02-26T00:41:12;93780.00;;;-1.08;100.00
68889;BME280;55930;47.412;8.790;2023-02-26T00:44:35;93776.69;;;-1.28;100.00
68889;BME280;55930;47.412;8.790;2023-02-26T00:48:15;93781.16;;;-1.29;100.00
68889;BME280;55930;47.412;8.790;2023-02-26T00:52:00;93785.63;;;-1.29;100.00
68889;BME280;55930;47.412;8.790;2023-02-26T00:55:22;93783.50;;;-1.54;100.00
68889;BME280;55930;47.412;8.790;2023-02-26T00:58:44;93779.50;;;-1.39;100.00
68889;BME280;55930;47.412;8.790;2023-02-26T01:02:05;93784.81;;;-1.26;100.00
68889;BME280;55930;47.412;8.790;2023-02-26T01:05:26;93784.63;;;-1.35;100.00
68889;BME280;55930;47.412;8.790;2023-02-26T01:08:53;93782.88;;;-1.42;100.00
68889;BME280;55930;47.412;8.790;2023-02-26T01:12:16;93775.91;;;-1.45;100.00
68889;BME280;55930;47.412;8.790;2023-02-26T01:15:37;93765.81;;;-1.43;100.00
68889;BME280;55930;47.412;8.790;2023-02-26T01:19:13;93775.44;;;-1.40;100.00
68889;BME280;55930;47.412;8.790;2023-02-26T01:22:41;93771.69;;;-1.39;100.00
68889;BME280;55930;47.412;8.790;2023-02-26T01:26:21;93768.41;;;-1.43;100.00
68889;BME280;55930;47.412;8.790;2023-02-26T01:29:42;93767.97;;;-1.38;100.00
68889;BME280;55930;47.412;8.790;2023-02-26T01:36:54;93757.53;;;-1.58;100.00
68889;BME280;55930;47.412;8.790;2023-02-26T01:50:37;93753.09;;;-1.57;100.00
68889;BME280;55930;47.412;8.790;2023-02-26T01:53:58;93759.97;;;-1.47;100.00
68889;BME280;55930;47.412;8.790;2023-02-26T01:57:20;93760.41;;;-1.32;100.00
68889;BME280;55930;47.412;8.790;2023-02-26T02:00:41;93756.44;;;-1.37;100.00
68889;BME280;55930;47.412;8.790;2023-02-26T02:04:03;93753.41;;;-1.55;100.00
68889;BME280;55930;47.412;8.790;2023-02-26T02:07:25;93755.41;;;-1.43;100.00
68889;BME280;55930;47.412;8.790;2023-02-26T02:10:50;93750.22;;;-1.43;100.00
68889;BME280;55930;47.412;8.790;2023-02-26T02:14:20;93747.00;;;-1.50;100.00
68889;BME280;55930;47.412;8.790;2023-02-26T02:18:06;93751.75;;;-1.65;100.00
68889;BME280;55930;47.412;8.790;2023-02-26T02:32:48;93749.34;;;-1.56;100.00
68889;BME280;55930;47.412;8.790;2023-02-26T02:36:16;93761.94;;;-1.74;100.00
68889;BME280;55930;47.412;8.790;2023-02-26T02:39:44;93758.88;;;-1.49;100.00
68889;BME280;55930;47.412;8.790;2023-02-26T02:43:10;93762.00;;;-1.58;100.00
68889;BME280;55930;47.412;8.790;2023-02-26T02:46:35;93762.34;;;-1.56;100.00
68889;BME280;55930;47.412;8.790;2023-02-26T02:57:19;93764.41;;;-1.67;100.00
68889;BME280;55930;47.412;8.790;2023-02-26T03:00:45;93766.28;;;-1.68;100.00
68889;BME280;55930;47.412;8.790;2023-02-26T03:04:09;93768.91;;;-1.68;100.00
68889;BME280;55930;47.412;8.790;2023-02-26T03:07:33;93776.56;;;-1.61;100.00
68889;BME280;55930;47.412;8.790;2023-02-26T03:10:57;93769.75;;;-1.55;100.00
68889;BME280;55930;47.412;8.790;2023-02-26T03:14:18;93768.88;;;-1.48;100.00
68889;BME280;55930;47.412;8.790;2023-02-26T03:17:53;93758.75;;;-1.62;100.00
68889;BME280;55930;47.412;8.790;2023-02-26T03:21:38;93766.09;;;-1.57;100.00
68889;BME280;55930;47.412;8.790;2023-02-26T03:25:23;93766.41;;;-1.55;100.00
68889;BME280;55930;47.412;8.790;2023-02-26T03:28:51;93767.47;;;-1.72;100.00
68889;BME280;55930;47.412;8.790;2023-02-26T03:32:20;93777.44;;;-1.90;100.00
68889;BME280;55930;47.412;8.790;2023-02-26T03:42:51;93765.56;;;-1.92;100.00
68889;BME280;55930;47.412;8.790;2023-02-26T03:46:17;93779.53;;;-2.05;100.00
68889;BME280;55930;47.412;8.790;2023-02-26T03:49:47;93776.59;;;-2.07;100.00
68889;BME280;55930;47.412;8.790;2023-02-26T03:53:11;93775.78;;;-2.01;100.00
68889;BME280;55930;47.412;8.790;2023-02-26T03:56:39;93774.53;;;-2.16;100.00
68889;BME280;55930;47.412;8.790;2023-02-26T04:00:05;93784.19;;;-2.16;100.00
68889;BME280;55930;47.412;8.790;2023-02-26T04:06:48;93799.72;;;-2.13;100.00
68889;BME280;55930;47.412;8.790;2023-02-26T04:10:18;93798.19;;;-2.34;100.00
68889;BME280;55930;47.412;8.790;2023-02-26T04:13:40;93809.09;;;-2.46;100.00
68889;BME280;55930;47.412;8.790;2023-02-26T04:17:01;93802.94;;;-2.55;100.00
68889;BME280;55930;47.412;8.790;2023-02-26T04:20:23;93799.75;;;-2.66;100.00
68889;BME280;55930;47.412;8.790;2023-02-26T04:23:44;93809.84;;;-2.72;100.00
68889;BME280;55930;47.412;8.790;2023-02-26T04:27:04;93808.28;;;-2.66;100.00
68889;BME280;55930;47.412;8.790;2023-02-26T04:30:25;93796.81;;;-2.68;100.00
68889;BME280;55930;47.412;8.790;2023-02-26T04:33:45;93795.81;;;-2.48;100.00
68889;BME280;55930;47.412;8.790;2023-02-26T04:37:08;93797.44;;;-2.61;100.00
68889;BME280;55930;47.412;8.790;2023-02-26T04:40:30;93807.53;;;-2.93;100.00
68889;BME280;55930;47.412;8.790;2023-02-26T04:43:50;93812.84;;;-3.04;100.00
68889;BME280;55930;47.412;8.790;2023-02-26T04:47:13;93817.06;;;-2.87;100.00
68889;BME280;55930;47.412;8.790;2023-02-26T04:50:33;93811.66;;;-2.69;100.00
68889;BME280;55930;47.412;8.790;2023-02-26T04:53:54;93818.63;;;-2.93;100.00
68889;BME280;55930;47.412;8.790;2023-02-26T04:57:14;93821.78;;;-2.78;100.00
68889;BME280;55930;47.412;8.790;2023-02-26T05:00:35;93820.28;;;-2.76;100.00
68889;BME280;55930;47.412;8.790;2023-02-26T05:03:55;93815.69;;;-2.95;100.00
68889;BME280;55930;47.412;8.790;2023-02-26T05:07:16;93817.06;;;-2.87;100.00
68889;BME280;55930;47.412;8.790;2023-02-26T05:10:36;93814.47;;;-2.87;100.00
68889;BME280;55930;47.412;8.790;2023-02-26T05:13:57;93811.50;;;-2.85;100.00
68889;BME280;55930;47.412;8.790;2023-02-26T05:17:19;93824.81;;;-2.83;100.00
68889;BME280;55930;47.412;8.790;2023-02-26T05:20:40;93822.47;;;-2.74;100.00
68889;BME280;55930;47.412;8.790;2023-02-26T05:24:00;93822.91;;;-2.79;100.00
68889;BME280;55930;47.412;8.790;2023-02-26T05:27:21;93825.66;;;-2.90;100.00
68889;BME280;55930;47.412;8.790;2023-02-26T05:30:41;93827.44;;;-2.87;100.00
68889;BME280;55930;47.412;8.790;2023-02-26T05:34:02;93831.84;;;-2.80;100.00
68889;BME280;55930;47.412;8.790;2023-02-26T05:37:22;93838.72;;;-2.97;100.00
68889;BME280;55930;47.412;8.790;2023-02-26T05:40:43;93838.28;;;-2.92;100.00
68889;BME280;55930;47.412;8.790;2023-02-26T05:44:03;93840.19;;;-2.96;100.00
68889;BME280;55930;47.412;8.790;2023-02-26T05:47:24;93845.19;;;-3.12;100.00
68889;BME280;55930;47.412;8.790;2023-02-26T05:50:45;93855.63;;;-3.19;100.00
68889;BME280;55930;47.412;8.790;2023-02-26T05:54:06;93848.72;;;-3.29;100.00
68889;BME280;55930;47.412;8.790;2023-02-26T05:57:27;93857.09;;;-3.18;100.00
68889;BME280;55930;47.412;8.790;2023-02-26T06:00:50;93858.63;;;-3.21;100.00
68889;BME280;55930;47.412;8.790;2023-02-26T06:04:13;93862.41;;;-3.29;100.00
68889;BME280;55930;47.412;8.790;2023-02-26T06:07:37;93861.69;;;-3.29;100.00
68889;BME280;55930;47.412;8.790;2023-02-26T06:11:00;93861.00;;;-3.37;100.00
68889;BME280;55930;47.412;8.790;2023-02-26T06:14:24;93856.81;;;-3.61;100.00
68889;BME280;55930;47.412;8.790;2023-02-26T06:17:45;93860.91;;;-3.64;100.00
68889;BME280;55930;47.412;8.790;2023-02-26T06:21:05;93863.13;;;-3.66;100.00
68889;BME280;55930;47.412;8.790;2023-02-26T06:24:26;93863.00;;;-3.52;100.00
68889;BME280;55930;47.412;8.790;2023-02-26T06:27:46;93864.19;;;-3.60;100.00
68889;BME280;55930;47.412;8.790;2023-02-26T06:31:07;93875.19;;;-3.49;100.00
68889;BME280;55930;47.412;8.790;2023-02-26T06:34:27;93880.38;;;-3.49;100.00
68889;BME280;55930;47.412;8.790;2023-02-26T06:37:48;93890.94;;;-3.70;100.00
68889;BME280;55930;47.412;8.790;2023-02-26T06:41:08;93889.72;;;-3.58;100.00
68889;BME280;55930;47.412;8.790;2023-02-26T06:44:30;93893.38;;;-3.52;100.00
68889;BME280;55930;47.412;8.790;2023-02-26T06:47:50;93897.94;;;-3.67;100.00
68889;BME280;55930;47.412;8.790;2023-02-26T06:51:11;93895.16;;;-3.45;100.00
68889;BME280;55930;47.412;8.790;2023-02-26T06:54:33;93898.22;;;-3.58;100.00
68889;BME280;55930;47.412;8.790;2023-02-26T06:57:54;93897.63;;;-3.31;100.00
68889;BME280;55930;47.412;8.790;2023-02-26T07:01:15;93904.50;;;-3.55;100.00
68889;BME280;55930;47.412;8.790;2023-02-26T07:04:36;93906.13;;;-3.27;100.00
68889;BME280;55930;47.412;8.790;2023-02-26T07:07:56;93897.47;;;-3.17;100.00
68889;BME280;55930;47.412;8.790;2023-02-26T07:11:17;93901.38;;;-3.02;100.00
68889;BME280;55930;47.412;8.790;2023-02-26T07:14:37;93905.78;;;-2.95;100.00
68889;BME280;55930;47.412;8.790;2023-02-26T07:17:57;93904.56;;;-2.87;100.00
68889;BME280;55930;47.412;8.790;2023-02-26T07:21:19;93906.22;;;-2.70;100.00
68889;BME280;55930;47.412;8.790;2023-02-26T07:24:40;93919.66;;;-2.79;100.00
68889;BME280;55930;47.412;8.790;2023-02-26T07:28:01;93915.13;;;-2.71;98.92
68889;BME280;55930;47.412;8.790;2023-02-26T07:31:22;93920.47;;;-2.55;96.86
68889;BME280;55930;47.412;8.790;2023-02-26T07:34:42;93919.91;;;-2.39;93.84
68889;BME280;55930;47.412;8.790;2023-02-26T07:38:03;93932.13;;;-2.36;96.11
68889;BME280;55930;47.412;8.790;2023-02-26T07:41:26;93930.22;;;-2.62;94.62
68889;BME280;55930;47.412;8.790;2023-02-26T07:44:46;93923.94;;;-2.95;96.28
68889;BME280;55930;47.412;8.790;2023-02-26T07:48:07;93930.09;;;-2.82;96.23
68889;BME280;55930;47.412;8.790;2023-02-26T07:51:27;93934.81;;;-2.43;94.93
68889;BME280;55930;47.412;8.790;2023-02-26T07:54:48;93936.00;;;-2.21;93.47
68889;BME280;55930;47.412;8.790;2023-02-26T07:58:08;93937.44;;;-1.89;93.33
68889;BME280;55930;47.412;8.790;2023-02-26T08:01:28;93938.81;;;-1.58;89.63
68889;BME280;55930;47.412;8.790;2023-02-26T08:04:49;93933.88;;;-1.06;81.71
68889;BME280;55930;47.412;8.790;2023-02-26T08:08:10;93936.75;;;-1.00;82.13
68889;BME280;55930;47.412;8.790;2023-02-26T08:11:33;93927.09;;;-0.60;82.05
68889;BME280;55930;47.412;8.790;2023-02-26T08:14:58;93920.50;;;0.40;76.33
68889;BME280;55930;47.412;8.790;2023-02-26T08:18:21;93918.88;;;-0.98;79.51
68889;BME280;55930;47.412;8.790;2023-02-26T08:21:42;93932.84;;;-0.89;82.47
68889;BME280;55930;47.412;8.790;2023-02-26T08:25:03;93935.22;;;-1.41;82.07
68889;BME280;55930;47.412;8.790;2023-02-26T08:28:24;93923.50;;;-1.76;81.86
68889;BME280;55930;47.412;8.790;2023-02-26T08:31:45;93926.81;;;-1.75;84.17
68889;BME280;55930;47.412;8.790;2023-02-26T08:35:06;93926.50;;;-1.77;84.14
68889;BME280;55930;47.412;8.790;2023-02-26T08:38:27;93935.34;;;-1.75;86.15
68889;BME280;55930;47.412;8.790;2023-02-26T08:41:48;93926.50;;;-1.31;83.43
68889;BME280;55930;47.412;8.790;2023-02-26T08:45:11;93934.53;;;-1.45;84.62
68889;BME280;55930;47.412;8.790;2023-02-26T08:48:31;93918.28;;;-2.26;86.28
68889;BME280;55930;47.412;8.790;2023-02-26T08:51:54;93939.81;;;-2.56;85.96
68889;BME280;55930;47.412;8.790;2023-02-26T08:55:14;93943.53;;;-2.57;88.32
68889;BME280;55930;47.412;8.790;2023-02-26T08:58:35;93952.47;;;-2.31;88.41
68889;BME280;55930;47.412;8.790;2023-02-26T09:01:55;93941.09;;;-1.37;84.71
68889;BME280;55930;47.412;8.790;2023-02-26T09:05:16;93937.88;;;-1.44;85.57
68889;BME280;55930;47.412;8.790;2023-02-26T09:08:37;93933.31;;;-0.18;79.66
68889;BME280;55930;47.412;8.790;2023-02-26T09:11:57;93941.97;;;-0.81;80.93
68889;BME280;55930;47.412;8.790;2023-02-26T09:15:18;93943.84;;;0.92;74.82
68889;BME280;55930;47.412;8.790;2023-02-26T09:18:40;93940.91;;;0.90;72.30
68889;BME280;55930;47.412;8.790;2023-02-26T09:22:01;93964.72;;;-1.28;79.71
68889;BME280;55930;47.412;8.790;2023-02-26T09:25:21;93962.03;;;-1.01;78.02
68889;BME280;55930;47.412;8.790;2023-02-26T09:28:43;93949.47;;;1.48;70.17
68889;BME280;55930;47.412;8.790;2023-02-26T09:32:03;93952.69;;;1.39;66.87
68889;BME280;55930;47.412;8.790;2023-02-26T09:35:27;93959.19;;;-0.47;70.17
68889;BME280;55930;47.412;8.790;2023-02-26T09:38:47;93965.72;;;-0.19;72.07
68889;BME280;55930;47.412;8.790;2023-02-26T09:42:40;93979.78;;;0.03;72.20
68889;BME280;55930;47.412;8.790;2023-02-26T09:46:11;93967.50;;;1.01;68.07
68889;BME280;55930;47.412;8.790;2023-02-26T09:57:09;93978.53;;;0.60;71.96
68889;BME280;55930;47.412;8.790;2023-02-26T10:07:44;93994.66;;;0.22;73.48
68889;BME280;55930;47.412;8.790;2023-02-26T10:18:31;93988.34;;;0.40;72.43
68889;BME280;55930;47.412;8.790;2023-02-26T10:21:59;93973.16;;;1.12;67.99
68889;BME280;55930;47.412;8.790;2023-02-26T10:25:28;93969.16;;;0.95;67.73
68889;BME280;55930;47.412;8.790;2023-02-26T10:32:33;93981.06;;;1.25;68.84
68889;BME280;55930;47.412;8.790;2023-02-26T10:36:04;93969.19;;;0.10;72.78
68889;BME280;55930;47.412;8.790;2023-02-26T10:46:49;93984.31;;;0.51;69.51
68889;BME280;55930;47.412;8.790;2023-02-26T10:50:15;93977.16;;;1.45;65.02
68889;BME280;55930;47.412;8.790;2023-02-26T10:53:37;93984.22;;;2.15;65.56
68889;BME280;55930;47.412;8.790;2023-02-26T10:56:58;93982.53;;;1.54;64.29
68889;BME280;55930;47.412;8.790;2023-02-26T11:00:19;93982.72;;;1.47;64.85
68889;BME280;55930;47.412;8.790;2023-02-26T11:03:43;93985.06;;;1.58;63.40
68889;BME280;55930;47.412;8.790;2023-02-26T11:07:04;93991.75;;;2.51;63.36
68889;BME280;55930;47.412;8.790;2023-02-26T11:10:32;93989.13;;;1.01;62.58
68889;BME280;55930;47.412;8.790;2023-02-26T11:13:55;93992.63;;;3.64;60.61
68889;BME280;55930;47.412;8.790;2023-02-26T11:17:17;93986.09;;;1.61;62.30
68889;BME280;55930;47.412;8.790;2023-02-26T11:20:41;93986.69;;;1.52;59.97
68889;BME280;55930;47.412;8.790;2023-02-26T11:24:06;93990.47;;;1.51;63.65
68889;BME280;55930;47.412;8.790;2023-02-26T11:27:35;93982.38;;;1.74;62.99
68889;BME280;55930;47.412;8.790;2023-02-26T11:30:55;93975.94;;;2.67;59.11
68889;BME280;55930;47.412;8.790;2023-02-26T11:34:22;93976.06;;;2.39;60.80
68889;BME280;55930;47.412;8.790;2023-02-26T11:37:58;93982.63;;;1.22;62.63
68889;BME280;55930;47.412;8.790;2023-02-26T11:41:19;93982.06;;;1.72;61.79
68889;BME280;55930;47.412;8.790;2023-02-26T11:44:46;93981.41;;;1.27;62.68
68889;BME280;55930;47.412;8.790;2023-02-26T11:48:14;93962.38;;;5.74;52.14
68889;BME280;55930;47.412;8.790;2023-02-26T11:51:35;93972.91;;;5.74;49.83
68889;BME280;55930;47.412;8.790;2023-02-26T11:55:00;93957.50;;;8.85;43.75
68889;BME280;55930;47.412;8.790;2023-02-26T11:58:23;93990.13;;;5.85;49.22
68889;BME280;55930;47.412;8.790;2023-02-26T12:01:43;93953.13;;;6.39;46.82
68889;BME280;55930;47.412;8.790;2023-02-26T12:05:06;93972.84;;;3.72;54.01
68889;BME280;55930;47.412;8.790;2023-02-26T12:08:35;93990.72;;;2.61;55.15
68889;BME280;55930;47.412;8.790;2023-02-26T12:12:00;93947.69;;;8.21;43.85
68889;BME280;55930;47.412;8.790;2023-02-26T12:15:30;93985.50;;;3.08;53.07
68889;BME280;55930;47.412;8.790;2023-02-26T12:19:05;94003.06;;;2.48;56.84
68889;BME280;55930;47.412;8.790;2023-02-26T12:26:52;93982.19;;;1.81;59.43
68889;BME280;55930;47.412;8.790;2023-02-26T12:45:20;93974.94;;;4.08;50.24
68889;BME280;55930;47.412;8.790;2023-02-26T12:52:43;93982.69;;;4.43;50.53
68889;BME280;55930;47.412;8.790;2023-02-26T12:56:27;93983.09;;;7.32;40.83
68889;BME280;55930;47.412;8.790;2023-02-26T13:00:16;93996.56;;;2.40;54.55
68889;BME280;55930;47.412;8.790;2023-02-26T13:18:10;94011.94;;;-0.83;65.74
68889;BME280;55930;47.412;8.790;2023-02-26T13:21:48;94006.09;;;-0.27;66.05
68889;BME280;55930;47.412;8.790;2023-02-26T13:25:18;94005.41;;;-0.31;67.50
68889;BME280;55930;47.412;8.790;2023-02-26T13:28:55;94005.41;;;0.24;65.42
68889;BME280;55930;47.412;8.790;2023-02-26T13:32:23;94014.19;;;0.66;64.97
68889;BME280;55930;47.412;8.790;2023-02-26T13:35:46;94004.25;;;-0.70;65.68
68889;BME280;55930;47.412;8.790;2023-02-26T13:39:27;93994.94;;;-0.28;64.44
68889;BME280;55930;47.412;8.790;2023-02-26T13:51:29;94005.88;;;-0.36;67.00
68889;BME280;55930;47.412;8.790;2023-02-26T13:54:42;94010.41;;;-0.01;67.15
68889;BME280;55930;47.412;8.790;2023-02-26T13:58:40;94006.81;;;1.10;61.64
68889;BME280;55930;47.412;8.790;2023-02-26T14:02:29;94012.78;;;-0.26;66.54
68889;BME280;55930;47.412;8.790;2023-02-26T14:16:27;94021.94;;;0.70;57.28
68889;BME280;55930;47.412;8.790;2023-02-26T14:23:28;94011.16;;;-0.01;60.00
68889;BME280;55930;47.412;8.790;2023-02-26T14:27:30;94033.19;;;0.67;60.79
68889;BME280;55930;47.412;8.790;2023-02-26T14:30:50;94033.47;;;-0.19;63.95
68889;BME280;55930;47.412;8.790;2023-02-26T14:34:20;94019.38;;;-0.02;62.44
68889;BME280;55930;47.412;8.790;2023-02-26T14:37:42;94025.34;;;2.27;55.62
68889;BME280;55930;47.412;8.790;2023-02-26T14:41:13;94000.66;;;5.21;47.81
68889;BME280;55930;47.412;8.790;2023-02-26T14:44:42;94004.53;;;4.09;48.66
68889;BME280;55930;47.412;8.790;2023-02-26T14:48:07;94004.56;;;3.65;51.67
68889;BME280;55930;47.412;8.790;2023-02-26T14:51:51;93992.72;;;4.84;46.69
68889;BME280;55930;47.412;8.790;2023-02-26T14:55:44;94014.09;;;3.72;51.22
68889;BME280;55930;47.412;8.790;2023-02-26T15:07:00;94025.47;;;1.41;57.03
68889;BME280;55930;47.412;8.790;2023-02-26T15:25:33;94034.00;;;0.64;61.92
68889;BME280;55930;47.412;8.790;2023-02-26T15:28:58;94043.44;;;0.06;64.37
68889;BME280;55930;47.412;8.790;2023-02-26T15:32:28;94067.59;;;0.26;64.92
68889;BME280;55930;47.412;8.790;2023-02-26T15:35:50;94057.28;;;0.38;64.26
68889;BME280;55930;47.412;8.790;2023-02-26T15:39:14;94062.88;;;0.01;64.68
68889;BME280;55930;47.412;8.790;2023-02-26T15:42:37;94054.00;;;-0.02;65.42
68889;BME280;55930;47.412;8.790;2023-02-26T15:45:58;94050.13;;;-0.33;66.19
68889;BME280;55930;47.412;8.790;2023-02-26T15:49:24;94054.88;;;-0.08;65.64
68889;BME280;55930;47.412;8.790;2023-02-26T15:52:50;94059.41;;;0.08;65.54
68889;BME280;55930;47.412;8.790;2023-02-26T15:56:20;94066.22;;;-0.18;65.95
68889;BME280;55930;47.412;8.790;2023-02-26T15:59:44;94070.44;;;-0.24;66.25
68889;BME280;55930;47.412;8.790;2023-02-26T16:03:05;94064.63;;;-0.12;67.29
68889;BME280;55930;47.412;8.790;2023-02-26T16:06:32;94072.38;;;-0.48;68.81
68889;BME280;55930;47.412;8.790;2023-02-26T16:09:54;94067.41;;;-0.86;71.76
68889;BME280;55930;47.412;8.790;2023-02-26T16:13:19;94070.28;;;-0.80;69.26
68889;BME280;55930;47.412;8.790;2023-02-26T16:16:48;94065.53;;;-1.08;70.39
68889;BME280;55930;47.412;8.790;2023-02-26T16:20:19;94058.28;;;-1.21;71.94
68889;BME280;55930;47.412;8.790;2023-02-26T16:23:44;94073.72;;;-1.10;71.88
68889;BME280;55930;47.412;8.790;2023-02-26T16:27:10;94080.91;;;-1.18;72.77
68889;BME280;55930;47.412;8.790;2023-02-26T16:30:35;94085.56;;;-1.05;72.54
68889;BME280;55930;47.412;8.790;2023-02-26T16:34:01;94083.81;;;-1.39;77.27
68889;BME280;55930;47.412;8.790;2023-02-26T16:40:53;94104.47;;;-1.55;82.29
68889;BME280;55930;47.412;8.790;2023-02-26T16:44:38;94106.41;;;-1.63;85.06
68889;BME280;55930;47.412;8.790;2023-02-26T16:48:00;94116.53;;;-1.68;86.90
68889;BME280;55930;47.412;8.790;2023-02-26T16:51:23;94114.97;;;-1.96;88.00
68889;BME280;55930;47.412;8.790;2023-02-26T16:54:52;94109.03;;;-1.97;89.39
68889;BME280;55930;47.412;8.790;2023-02-26T16:58:14;94122.22;;;-1.80;88.35
68889;BME280;55930;47.412;8.790;2023-02-26T17:01:38;94126.63;;;-2.08;89.98
68889;BME280;55930;47.412;8.790;2023-02-26T17:05:16;94124.88;;;-2.18;89.27
68889;BME280;55930;47.412;8.790;2023-02-26T17:08:58;94135.22;;;-2.14;89.27
68889;BME280;55930;47.412;8.790;2023-02-26T17:12:23;94138.94;;;-2.15;89.40
68889;BME280;55930;47.412;8.790;2023-02-26T17:15:48;94139.66;;;-2.15;89.73
68889;BME280;55930;47.412;8.790;2023-02-26T17:19:09;94118.13;;;-2.12;89.81
68889;BME280;55930;47.412;8.790;2023-02-26T17:22:30;94123.81;;;-2.24;90.84
68889;BME280;55930;47.412;8.790;2023-02-26T17:25:53;94121.69;;;-2.33;92.60
68889;BME280;55930;47.412;8.790;2023-02-26T17:29:18;94131.78;;;-2.42;94.30
68889;BME280;55930;47.412;8.790;2023-02-26T17:32:41;94129.88;;;-2.38;95.07
68889;BME280;55930;47.412;8.790;2023-02-26T17:36:03;94136.25;;;-2.42;95.95
68889;BME280;55930;47.412;8.790;2023-02-26T17:39:24;94145.72;;;-2.25;96.01
68889;BME280;55930;47.412;8.790;2023-02-26T17:42:45;94148.72;;;-2.26;95.58
68889;BME280;55930;47.412;8.790;2023-02-26T17:46:08;94151.31;;;-2.30;95.84
68889;BME280;55930;47.412;8.790;2023-02-26T17:49:29;94154.50;;;-2.12;96.71
68889;BME280;55930;47.412;8.790;2023-02-26T17:52:49;94168.22;;;-2.11;97.28
68889;BME280;55930;47.412;8.790;2023-02-26T17:56:16;94182.91;;;-2.32;98.14
68889;BME280;55930;47.412;8.790;2023-02-26T17:59:39;94178.38;;;-2.24;97.22
68889;BME280;55930;47.412;8.790;2023-02-26T18:03:02;94197.19;;;-2.13;97.59
68889;BME280;55930;47.412;8.790;2023-02-26T18:06:33;94178.63;;;-2.15;97.47
68889;BME280;55930;47.412;8.790;2023-02-26T18:09:54;94178.25;;;-2.13;97.01
68889;BME280;55930;47.412;8.790;2023-02-26T18:13:14;94172.78;;;-2.22;96.62
68889;BME280;55930;47.412;8.790;2023-02-26T18:16:38;94174.47;;;-2.05;97.64
68889;BME280;55930;47.412;8.790;2023-02-26T18:19:59;94163.56;;;-2.27;100.00
68889;BME280;55930;47.412;8.790;2023-02-26T18:23:20;94175.50;;;-2.37;100.00
68889;BME280;55930;47.412;8.790;2023-02-26T18:26:40;94185.19;;;-2.41;100.00
68889;BME280;55930;47.412;8.790;2023-02-26T18:30:01;94181.41;;;-2.33;100.00
68889;BME280;55930;47.412;8.790;2023-02-26T18:33:24;94196.56;;;-2.24;100.00
68889;BME280;55930;47.412;8.790;2023-02-26T18:36:45;94195.53;;;-2.34;100.00
68889;BME280;55930;47.412;8.790;2023-02-26T18:40:18;94208.59;;;-2.44;100.00
68889;BME280;55930;47.412;8.790;2023-02-26T18:43:41;94204.13;;;-2.44;100.00
68889;BME280;55930;47.412;8.790;2023-02-26T18:47:01;94201.59;;;-2.54;100.00
68889;BME280;55930;47.412;8.790;2023-02-26T18:50:22;94210.81;;;-2.43;100.00
68889;BME280;55930;47.412;8.790;2023-02-26T18:53:43;94203.88;;;-2.56;100.00
68889;BME280;55930;47.412;8.790;2023-02-26T18:57:05;94223.03;;;-2.40;100.00
68889;BME280;55930;47.412;8.790;2023-02-26T19:00:25;94219.28;;;-2.35;100.00
68889;BME280;55930;47.412;8.790;2023-02-26T19:03:47;94236.28;;;-2.31;100.00
68889;BME280;55930;47.412;8.790;2023-02-26T19:07:08;94233.31;;;-2.29;100.00
68889;BME280;55930;47.412;8.790;2023-02-26T19:10:28;94223.38;;;-2.38;98.92
68889;BME280;55930;47.412;8.790;2023-02-26T19:13:50;94214.47;;;-2.37;96.99
68889;BME280;55930;47.412;8.790;2023-02-26T19:17:11;94227.13;;;-2.42;96.54
68889;BME280;55930;47.412;8.790;2023-02-26T19:20:31;94229.66;;;-2.32;95.83
68889;BME280;55930;47.412;8.790;2023-02-26T19:23:55;94231.16;;;-2.38;95.86
68889;BME280;55930;47.412;8.790;2023-02-26T19:27:15;94234.59;;;-2.51;94.63
68889;BME280;55930;47.412;8.790;2023-02-26T19:30:36;94223.41;;;-2.41;95.61
68889;BME280;55930;47.412;8.790;2023-02-26T19:33:58;94217.13;;;-2.47;96.53
68889;BME280;55930;47.412;8.790;2023-02-26T19:37:19;94240.53;;;-2.51;96.93
68889;BME280;55930;47.412;8.790;2023-02-26T19:40:39;94227.91;;;-2.49;98.15
68889;BME280;55930;47.412;8.790;2023-02-26T19:44:00;94233.38;;;-2.36;97.71
68889;BME280;55930;47.412;8.790;2023-02-26T19:47:23;94230.59;;;-2.59;99.42
68889;BME280;55930;47.412;8.790;2023-02-26T19:50:43;94251.34;;;-2.56;98.95
68889;BME280;55930;47.412;8.790;2023-02-26T19:54:08;94246.44;;;-2.47;98.63
68889;BME280;55930;47.412;8.790;2023-02-26T19:57:28;94265.75;;;-2.51;97.62
68889;BME280;55930;47.412;8.790;2023-02-26T20:00:49;94253.56;;;-2.58;98.46
68889;BME280;55930;47.412;8.790;2023-02-26T20:04:11;94253.53;;;-2.54;98.50
68889;BME280;55930;47.412;8.790;2023-02-26T20:07:33;94250.19;;;-2.55;98.67
68889;BME280;55930;47.412;8.790;2023-02-26T20:10:55;94262.38;;;-2.41;99.06
68889;BME280;55930;47.412;8.790;2023-02-26T20:14:16;94265.75;;;-2.48;98.02
68889;BME280;55930;47.412;8.790;2023-02-26T20:17:37;94262.44;;;-2.55;99.12
68889;BME280;55930;47.412;8.790;2023-02-26T20:21:01;94270.97;;;-2.55;98.32
68889;BME280;55930;47.412;8.790;2023-02-26T20:24:23;94263.97;;;-2.61;98.74
68889;BME280;55930;47.412;8.790;2023-02-26T20:27:45;94268.41;;;-2.58;99.09
68889;BME280;55930;47.412;8.790;2023-02-26T20:31:06;94273.53;;;-2.48;99.55
68889;BME280;55930;47.412;8.790;2023-02-26T20:34:26;94275.03;;;-2.54;99.51
68889;BME280;55930;47.412;8.790;2023-02-26T20:37:49;94270.97;;;-2.55;100.00
68889;BME280;55930;47.412;8.790;2023-02-26T20:41:10;94287.28;;;-2.54;100.00
68889;BME280;55930;47.412;8.790;2023-02-26T20:44:30;94279.16;;;-2.60;99.97
68889;BME280;55930;47.412;8.790;2023-02-26T20:47:51;94294.06;;;-2.67;100.00